createdAt,value
2023-01-12T00:00:24.806Z,9.40
2023-01-12T00:01:46.190Z,9.59
2023-01-12T00:03:07.715Z,10.44
2023-01-12T00:04:29.131Z,9.51
2023-01-12T00:05:50.143Z,7.43
2023-01-12T00:07:11.977Z,7.49
2023-01-12T00:08:34.017Z,7.37
2023-01-12T00:09:55.060Z,7.57
2023-01-12T00:11:16.067Z,6.71
2023-01-12T00:12:37.350Z,7.55
2023-01-12T00:13:58.537Z,6.92
2023-01-12T00:15:26.644Z,8.66
2023-01-12T00:16:47.813Z,8.31
2023-01-12T00:18:09.231Z,6.76
2023-01-12T00:19:31.286Z,7.71
2023-01-12T00:21:05.990Z,8.52
2023-01-12T00:22:33.638Z,7.63
2023-01-12T00:23:55.042Z,7.14
2023-01-12T00:25:16.783Z,6.43
2023-01-12T00:26:52.152Z,6.87
2023-01-12T00:28:19.569Z,7.91
2023-01-12T00:29:41.031Z,7.20
2023-01-12T00:31:09.976Z,8.68
2023-01-12T00:32:31.387Z,8.58
2023-01-12T00:33:58.838Z,8.79
2023-01-12T00:35:20.214Z,10.98
2023-01-12T00:36:42.352Z,11.56
2023-01-12T00:38:09.751Z,8.88
2023-01-12T00:39:40.822Z,7.60
2023-01-12T00:41:08.504Z,8.73
2023-01-12T00:42:29.876Z,7.44
2023-01-12T00:46:52.233Z,8.28
2023-01-12T00:48:50.200Z,8.35
2023-01-12T00:50:50.102Z,7.22
2023-01-12T00:52:35.895Z,7.39
2023-01-12T00:54:40.511Z,7.30
2023-01-12T00:56:19.959Z,7.89
2023-01-12T00:58:18.413Z,8.46
2023-01-12T00:59:40.188Z,7.41
2023-01-12T01:01:05.947Z,6.14
2023-01-12T01:02:27.831Z,7.64
2023-01-12T01:03:49.111Z,7.52
2023-01-12T01:05:28.382Z,8.36
2023-01-12T01:07:08.432Z,8.99
2023-01-12T01:08:48.005Z,8.18
2023-01-12T01:10:11.076Z,8.39
2023-01-12T01:11:32.320Z,8.78
2023-01-12T01:12:53.577Z,7.79
2023-01-12T01:14:14.676Z,8.03
2023-01-12T01:15:35.890Z,8.44
2023-01-12T01:16:57.621Z,10.99
2023-01-12T01:18:19.164Z,9.09
2023-01-12T01:19:40.199Z,12.64
2023-01-12T01:21:01.422Z,10.22
2023-01-12T01:22:22.964Z,10.05
2023-01-12T01:23:44.480Z,12.41
2023-01-12T01:25:06.342Z,11.68
2023-01-12T01:26:27.643Z,12.28
2023-01-12T01:27:48.954Z,18.31
2023-01-12T01:29:09.879Z,13.89
2023-01-12T01:30:31.071Z,13.12
2023-01-12T01:31:54.381Z,15.27
2023-01-12T01:33:15.357Z,15.60
2023-01-12T01:34:36.260Z,13.96
2023-01-12T01:35:57.347Z,15.58
2023-01-12T01:37:18.681Z,12.08
2023-01-12T01:38:39.588Z,11.39
2023-01-12T01:40:00.498Z,15.05
2023-01-12T01:41:24.237Z,11.99
2023-01-12T01:42:45.425Z,9.96
2023-01-12T01:44:30.316Z,8.77
2023-01-12T01:46:01.044Z,12.36
2023-01-12T01:47:31.617Z,14.79
2023-01-12T01:48:53.015Z,14.12
2023-01-12T01:50:19.996Z,12.92
2023-01-12T01:51:41.356Z,11.11
2023-01-12T01:54:15.315Z,10.79
2023-01-12T01:55:48.976Z,10.66
2023-01-12T01:57:10.176Z,8.94
2023-01-12T01:58:34.983Z,8.97
2023-01-12T01:59:56.323Z,9.59
2023-01-12T02:01:17.709Z,10.27
2023-01-12T02:02:39.742Z,8.78
2023-01-12T02:04:01.628Z,8.66
2023-01-12T02:05:24.810Z,8.43
2023-01-12T02:08:09.913Z,8.66
2023-01-12T02:09:31.363Z,9.04
2023-01-12T02:10:52.539Z,8.34
2023-01-12T02:12:13.912Z,8.81
2023-01-12T02:13:34.919Z,11.98
2023-01-12T02:14:56.054Z,8.74
2023-01-12T02:16:21.325Z,8.63
2023-01-12T02:18:09.706Z,8.78
2023-01-12T02:19:46.900Z,7.98
2023-01-12T02:22:48.310Z,8.58
2023-01-12T02:24:41.903Z,8.84
2023-01-12T02:26:31.510Z,7.89
2023-01-12T02:28:14.732Z,7.79
2023-01-12T02:29:54.232Z,8.77
2023-01-12T02:31:22.290Z,8.62
2023-01-12T02:32:53.236Z,7.72
2023-01-12T02:35:51.872Z,7.79
2023-01-12T02:38:53.106Z,8.73
2023-01-12T02:40:27.058Z,7.98
2023-01-12T02:41:51.656Z,7.54
2023-01-12T02:43:23.889Z,8.38
2023-01-12T02:46:24.885Z,8.85
2023-01-12T02:47:58.255Z,8.58
2023-01-12T02:49:20.637Z,8.22
2023-01-12T02:50:54.783Z,8.78
2023-01-12T02:52:16.820Z,9.04
2023-01-12T02:53:52.309Z,14.97
2023-01-12T02:55:13.675Z,15.55
2023-01-12T02:57:47.772Z,9.58
2023-01-12T02:59:15.845Z,9.63
2023-01-12T03:00:37.025Z,13.11
2023-01-12T03:02:03.724Z,23.35
2023-01-12T03:03:25.178Z,10.64
2023-01-12T03:04:46.485Z,17.31
2023-01-12T03:06:08.714Z,17.43
2023-01-12T03:07:45.865Z,7.96
2023-01-12T03:09:06.842Z,7.36
2023-01-12T03:10:34.651Z,7.82
2023-01-12T03:11:58.157Z,12.43
2023-01-12T03:13:19.262Z,10.50
2023-01-12T03:14:42.508Z,13.94
2023-01-12T03:16:04.284Z,11.36
2023-01-12T03:17:32.282Z,8.59
2023-01-12T03:19:04.406Z,13.48
2023-01-12T03:20:33.688Z,20.01
2023-01-12T03:23:14.175Z,22.96
2023-01-12T03:24:38.697Z,20.51
2023-01-12T03:26:00.210Z,18.23
2023-01-12T03:28:37.781Z,9.93
2023-01-12T03:31:17.736Z,8.24
2023-01-12T03:32:39.324Z,7.53
2023-01-12T03:34:00.820Z,12.43
2023-01-12T03:35:24.296Z,10.67
2023-01-12T03:37:09.329Z,8.54
2023-01-12T03:38:46.290Z,8.57
2023-01-12T03:40:14.582Z,8.15
2023-01-12T03:43:16.058Z,8.15
2023-01-12T03:44:40.631Z,8.30
2023-01-12T03:46:14.497Z,9.06
2023-01-12T03:47:35.957Z,7.73
2023-01-12T03:49:16.217Z,9.09
2023-01-12T03:50:53.231Z,7.36
2023-01-12T03:52:14.367Z,7.19
2023-01-12T03:53:35.555Z,9.20
2023-01-12T03:54:57.841Z,7.10
2023-01-12T03:56:19.638Z,6.36
2023-01-12T03:57:41.021Z,7.21
2023-01-12T03:59:02.824Z,8.36
2023-01-12T04:00:23.970Z,7.95
2023-01-12T04:01:45.470Z,9.78
2023-01-12T04:03:11.192Z,8.20
2023-01-12T04:04:32.497Z,9.38
2023-01-12T04:05:53.597Z,9.05
2023-01-12T04:07:14.753Z,8.12
2023-01-12T04:08:36.132Z,7.91
2023-01-12T04:09:57.517Z,8.47
2023-01-12T04:11:19.018Z,7.97
2023-01-12T04:12:40.121Z,7.52
2023-01-12T04:14:01.220Z,8.22
2023-01-12T04:15:22.556Z,7.75
2023-01-12T04:16:43.743Z,7.48
2023-01-12T04:18:04.835Z,11.02
2023-01-12T04:19:25.880Z,8.77
2023-01-12T04:20:47.141Z,9.59
2023-01-12T04:22:09.634Z,8.00
2023-01-12T04:23:31.090Z,8.24
2023-01-12T04:24:52.494Z,7.83
2023-01-12T04:26:14.205Z,8.33
2023-01-12T04:27:35.660Z,9.32
2023-01-12T04:28:56.683Z,11.08
2023-01-12T04:30:19.149Z,10.61
2023-01-12T04:31:40.423Z,11.71
2023-01-12T04:33:06.379Z,10.33
2023-01-12T04:34:27.695Z,11.82
2023-01-12T04:35:49.269Z,7.80
2023-01-12T04:37:10.791Z,8.29
2023-01-12T04:39:23.804Z,10.39
2023-01-12T04:40:45.490Z,10.94
2023-01-12T04:42:06.954Z,10.22
2023-01-12T04:43:28.379Z,18.94
2023-01-12T04:44:49.918Z,8.76
2023-01-12T04:46:13.289Z,11.31
2023-01-12T04:47:34.770Z,9.22
2023-01-12T04:48:56.368Z,8.94
2023-01-12T04:50:17.900Z,7.46
2023-01-12T04:51:38.901Z,23.99
2023-01-12T04:53:03.661Z,15.26
2023-01-12T04:54:24.921Z,8.49
2023-01-12T04:55:45.843Z,8.87
2023-01-12T04:57:06.821Z,8.27
2023-01-12T04:58:27.809Z,8.26
2023-01-12T04:59:48.857Z,8.52
2023-01-12T05:02:26.975Z,8.30
2023-01-12T05:03:48.432Z,8.95
2023-01-12T05:05:09.802Z,8.16
2023-01-12T05:06:31.023Z,7.47
2023-01-12T05:07:52.257Z,12.73
2023-01-12T05:09:13.349Z,8.17
2023-01-12T05:10:34.646Z,7.69
2023-01-12T05:11:55.983Z,9.51
2023-01-12T05:13:17.032Z,9.49
2023-01-12T05:14:38.121Z,8.64
2023-01-12T05:17:23.625Z,9.79
2023-01-12T05:18:45.325Z,8.57
2023-01-12T05:20:08.694Z,9.73
2023-01-12T05:21:29.726Z,8.97
2023-01-12T05:22:50.954Z,8.79
2023-01-12T05:24:12.644Z,9.51
2023-01-12T05:25:34.141Z,9.03
2023-01-12T05:26:55.226Z,11.23
2023-01-12T05:28:16.428Z,11.07
2023-01-12T05:29:37.341Z,8.53
2023-01-12T05:31:07.197Z,11.57
2023-01-12T05:32:28.508Z,13.91
2023-01-12T05:33:49.482Z,8.95
2023-01-12T05:35:11.033Z,7.79
2023-01-12T05:36:32.105Z,9.34
2023-01-12T05:37:56.379Z,10.93
2023-01-12T05:39:17.315Z,12.04
2023-01-12T05:40:39.190Z,12.36
2023-01-12T05:42:00.117Z,14.22
2023-01-12T05:43:21.626Z,10.60
2023-01-12T05:44:43.195Z,10.20
2023-01-12T05:46:04.823Z,10.15
2023-01-12T05:47:26.109Z,9.16
2023-01-12T05:48:47.807Z,8.11
2023-01-12T05:51:31.745Z,16.12
2023-01-12T05:52:53.013Z,9.65
2023-01-12T05:54:14.431Z,13.59
2023-01-12T05:55:36.798Z,14.63
2023-01-12T05:56:58.067Z,14.28
2023-01-12T05:58:19.477Z,14.62
2023-01-12T05:59:41.010Z,10.81
2023-01-12T06:02:18.519Z,10.50
2023-01-12T06:03:39.832Z,9.23
2023-01-12T06:05:00.979Z,12.13
2023-01-12T06:06:23.538Z,9.12
2023-01-12T06:07:44.780Z,9.30
2023-01-12T06:09:06.445Z,14.22
2023-01-12T06:10:28.130Z,9.86
2023-01-12T06:11:49.443Z,9.88
2023-01-12T06:13:12.191Z,11.57
2023-01-12T06:14:33.607Z,11.84
2023-01-12T06:15:59.985Z,10.18
2023-01-12T06:17:21.249Z,11.31
2023-01-12T06:18:42.574Z,9.64
2023-01-12T06:20:05.358Z,11.89
2023-01-12T06:21:26.465Z,12.31
2023-01-12T06:22:47.797Z,10.32
2023-01-12T06:24:09.110Z,8.07
2023-01-12T06:25:31.341Z,7.93
2023-01-12T06:26:53.224Z,7.65
2023-01-12T06:28:14.724Z,8.35
2023-01-12T06:29:36.061Z,17.18
2023-01-12T06:30:58.112Z,47.09
2023-01-12T06:32:19.210Z,21.97
2023-01-12T06:33:41.080Z,10.68
2023-01-12T06:35:14.186Z,8.58
2023-01-12T06:36:25.895Z,9.37
2023-01-12T06:37:47.129Z,10.13
2023-01-12T06:39:08.746Z,9.48
2023-01-12T06:40:30.156Z,11.04
2023-01-12T06:41:51.435Z,9.73
2023-01-12T06:43:12.995Z,11.22
2023-01-12T06:44:34.512Z,11.73
2023-01-12T06:47:05.469Z,10.76
2023-01-12T06:48:26.877Z,8.72
2023-01-12T06:49:50.190Z,13.61
2023-01-12T06:51:11.617Z,15.03
2023-01-12T06:52:32.739Z,13.69
2023-01-12T06:53:54.949Z,12.05
2023-01-12T06:55:16.437Z,12.36
2023-01-12T06:56:38.214Z,9.52
2023-01-12T06:58:02.884Z,9.93
2023-01-12T06:59:24.224Z,9.50
2023-01-12T07:00:46.048Z,9.69
2023-01-12T07:02:14.387Z,9.98
2023-01-12T07:03:36.231Z,11.34
2023-01-12T07:04:57.843Z,12.17
2023-01-12T07:06:19.358Z,9.88
2023-01-12T07:07:40.773Z,10.07
2023-01-12T07:09:02.313Z,9.24
2023-01-12T07:10:24.209Z,9.63
2023-01-12T07:11:45.481Z,9.80
2023-01-12T07:13:06.487Z,10.38
2023-01-12T07:14:27.948Z,10.70
2023-01-12T07:15:49.408Z,12.90
2023-01-12T07:18:26.269Z,7.67
2023-01-12T07:19:47.928Z,9.37
2023-01-12T07:21:09.772Z,9.82
2023-01-12T07:22:32.069Z,13.11
2023-01-12T07:23:53.685Z,14.28
2023-01-12T07:25:15.384Z,11.70
2023-01-12T07:26:36.793Z,17.02
2023-01-12T07:27:58.219Z,21.95
2023-01-12T07:29:19.774Z,20.08
2023-01-12T07:30:40.949Z,32.96
2023-01-12T07:32:02.421Z,30.66
2023-01-12T07:33:23.871Z,18.17
2023-01-12T07:34:45.095Z,25.98
2023-01-12T07:36:07.477Z,15.36
2023-01-12T07:37:28.780Z,12.42
2023-01-12T07:38:50.295Z,23.62
2023-01-12T07:40:12.488Z,19.71
2023-01-12T07:41:33.773Z,10.93
2023-01-12T07:44:10.575Z,9.21
2023-01-12T07:45:32.005Z,10.94
2023-01-12T07:46:53.842Z,9.95
2023-01-12T07:48:15.257Z,38.67
2023-01-12T07:49:36.434Z,29.56
2023-01-12T07:50:58.380Z,92.64
2023-01-12T07:52:19.724Z,113.59
2023-01-12T07:53:41.411Z,36.81
2023-01-12T07:55:04.658Z,63.60
2023-01-12T07:56:26.080Z,63.93
2023-01-12T07:58:00.283Z,65.21
2023-01-12T07:59:23.360Z,15.13
2023-01-12T08:00:44.971Z,20.05
2023-01-12T08:02:06.405Z,23.08
2023-01-12T08:03:27.908Z,13.78
2023-01-12T08:04:49.409Z,57.54
2023-01-12T08:06:11.385Z,31.54
2023-01-12T08:07:32.539Z,56.23
2023-01-12T08:08:54.103Z,77.17
2023-01-12T08:10:16.519Z,16.38
2023-01-12T08:11:38.004Z,11.91
2023-01-12T08:12:59.370Z,14.77
2023-01-12T08:14:28.121Z,14.04
2023-01-12T08:15:49.766Z,13.21
2023-01-12T08:17:14.060Z,13.28
2023-01-12T08:20:01.073Z,14.19
2023-01-12T08:21:24.183Z,16.77
2023-01-12T08:24:06.488Z,17.54
2023-01-12T08:25:33.489Z,20.56
2023-01-12T08:26:55.663Z,30.64
2023-01-12T08:28:18.351Z,20.43
2023-01-12T08:29:47.653Z,22.16
2023-01-12T08:31:08.633Z,15.46
2023-01-12T08:32:30.209Z,15.21
2023-01-12T08:33:52.334Z,12.57
2023-01-12T08:35:14.807Z,13.90
2023-01-12T08:36:36.376Z,14.43
2023-01-12T08:37:57.790Z,16.18
2023-01-12T08:39:18.930Z,14.21
2023-01-12T08:40:40.240Z,13.72
2023-01-12T08:42:01.849Z,12.16
2023-01-12T08:43:23.135Z,10.54
2023-01-12T08:44:45.045Z,11.73
2023-01-12T08:46:07.010Z,8.25
2023-01-12T08:47:28.538Z,10.39
2023-01-12T08:48:50.183Z,10.18
2023-01-12T08:50:12.911Z,10.25
2023-01-12T08:51:35.364Z,10.21
2023-01-12T08:52:56.849Z,9.39
2023-01-12T08:54:18.949Z,10.49
2023-01-12T08:55:42.148Z,11.49
2023-01-12T08:58:24.302Z,9.94
2023-01-12T08:59:45.686Z,9.74
2023-01-12T09:01:08.451Z,11.39
2023-01-12T09:03:51.550Z,10.70
2023-01-12T09:05:13.560Z,11.09
2023-01-12T09:06:37.157Z,11.67
2023-01-12T09:09:19.132Z,11.52
2023-01-12T09:10:40.929Z,12.35
2023-01-12T09:12:04.169Z,11.90
2023-01-12T09:13:25.866Z,10.98
2023-01-12T09:14:47.155Z,11.92
2023-01-12T09:16:13.184Z,9.93
2023-01-12T09:17:36.363Z,11.77
2023-01-12T09:18:57.879Z,11.76
2023-01-12T09:20:19.482Z,10.98
2023-01-12T09:21:41.067Z,10.96
2023-01-12T09:23:03.289Z,10.73
2023-01-12T09:24:24.409Z,10.72
2023-01-12T09:25:48.764Z,12.15
2023-01-12T09:27:10.130Z,11.56
2023-01-12T09:28:32.175Z,11.98
2023-01-12T09:29:53.142Z,12.05
2023-01-12T09:31:19.084Z,11.59
2023-01-12T09:32:40.558Z,12.22
2023-01-12T09:34:02.078Z,11.56
2023-01-12T09:35:23.303Z,12.34
2023-01-12T09:36:44.992Z,13.31
2023-01-12T09:38:06.415Z,11.48
2023-01-12T09:39:28.616Z,10.98
2023-01-12T09:40:50.729Z,10.77
2023-01-12T09:42:17.550Z,11.38
2023-01-12T09:43:39.045Z,9.96
2023-01-12T09:45:02.168Z,10.92
2023-01-12T09:47:54.023Z,11.93
2023-01-12T09:49:15.490Z,11.95
2023-01-12T09:50:38.800Z,11.94
2023-01-12T09:54:35.131Z,12.22
2023-01-12T09:56:09.318Z,13.15
2023-01-12T09:58:06.299Z,13.49
2023-01-12T10:00:54.838Z,11.24
2023-01-12T10:02:16.211Z,26.01
2023-01-12T10:03:38.153Z,22.86
2023-01-12T10:04:59.738Z,17.46
2023-01-12T10:06:21.478Z,11.11
2023-01-12T10:07:42.999Z,10.33
2023-01-12T10:09:10.517Z,10.92
2023-01-12T10:10:31.602Z,10.71
2023-01-12T10:13:12.091Z,12.24
2023-01-12T10:14:58.650Z,10.87
2023-01-12T10:16:49.618Z,10.25
2023-01-12T10:18:32.818Z,9.98
2023-01-12T10:20:04.153Z,10.34
2023-01-12T10:21:28.103Z,11.12
2023-01-12T10:22:52.331Z,11.33
2023-01-12T10:24:13.542Z,11.03
2023-01-12T10:25:45.920Z,10.88
2023-01-12T10:27:07.894Z,10.98
2023-01-12T10:28:30.412Z,12.21
2023-01-12T10:29:51.663Z,11.54
2023-01-12T10:31:18.290Z,12.84
2023-01-12T10:32:42.045Z,15.41
2023-01-12T10:35:16.283Z,13.00
2023-01-12T10:36:43.157Z,13.65
2023-01-12T10:38:08.329Z,23.04
2023-01-12T10:39:33.857Z,13.21
2023-01-12T10:41:13.877Z,12.54
2023-01-12T10:42:35.446Z,11.60
2023-01-12T10:44:06.276Z,11.03
2023-01-12T10:45:29.120Z,12.94
2023-01-12T10:48:22.968Z,12.33
2023-01-12T10:49:44.683Z,13.95
2023-01-12T10:51:07.407Z,16.80
2023-01-12T10:52:34.679Z,18.11
2023-01-12T10:53:59.719Z,16.97
2023-01-12T10:56:38.165Z,16.38
2023-01-12T10:57:59.619Z,16.26
2023-01-12T10:59:26.469Z,11.99
2023-01-12T11:00:50.437Z,18.01
2023-01-12T11:02:14.173Z,14.95
2023-01-12T11:03:37.099Z,16.31
2023-01-12T11:04:59.505Z,18.27
2023-01-12T11:07:43.002Z,14.86
2023-01-12T11:09:17.630Z,13.59
2023-01-12T11:10:39.909Z,15.43
2023-01-12T11:12:02.752Z,18.35
2023-01-12T11:14:39.643Z,12.67
2023-01-12T11:16:12.454Z,15.99
2023-01-12T11:17:40.111Z,14.55
2023-01-12T11:19:16.247Z,13.78
2023-01-12T11:20:41.468Z,14.08
2023-01-12T11:22:14.992Z,13.64
2023-01-12T11:25:06.064Z,13.51
2023-01-12T11:28:00.884Z,15.25
2023-01-12T11:29:29.477Z,14.41
2023-01-12T11:30:55.709Z,15.16
2023-01-12T11:33:43.604Z,15.60
2023-01-12T11:35:20.668Z,15.79
2023-01-12T11:36:44.350Z,14.82
2023-01-12T11:39:32.520Z,19.97
2023-01-12T11:42:20.457Z,16.14
2023-01-12T11:45:06.448Z,17.31
2023-01-12T11:46:49.682Z,15.73
2023-01-12T11:48:23.340Z,17.78
2023-01-12T11:50:12.358Z,22.23
2023-01-12T11:51:34.382Z,17.29
2023-01-12T11:52:55.786Z,15.13
2023-01-12T11:54:17.535Z,14.81
2023-01-12T11:56:05.332Z,14.94
2023-01-12T11:57:45.162Z,14.17
2023-01-12T11:59:12.823Z,15.24
2023-01-12T12:00:41.107Z,14.76
2023-01-12T12:02:15.529Z,16.93
2023-01-12T12:03:57.395Z,16.80
2023-01-12T12:05:31.438Z,36.25
2023-01-12T12:08:45.498Z,15.39
2023-01-12T12:10:22.247Z,15.16
2023-01-12T12:11:59.503Z,13.53
2023-01-12T12:14:53.085Z,15.62
2023-01-12T12:16:28.688Z,15.99
2023-01-12T12:18:05.542Z,13.71
2023-01-12T12:19:39.885Z,11.84
2023-01-12T12:21:11.195Z,11.63
2023-01-12T12:22:41.833Z,10.85
2023-01-12T12:24:27.116Z,11.13
2023-01-12T12:26:10.352Z,11.37
2023-01-12T12:27:56.388Z,11.39
2023-01-12T12:29:25.508Z,12.31
2023-01-12T12:31:03.372Z,15.16
2023-01-12T12:32:37.377Z,12.67
2023-01-12T12:35:54.865Z,12.01
2023-01-12T12:38:52.686Z,12.41
2023-01-12T12:40:34.730Z,13.03
2023-01-12T12:42:20.571Z,13.13
2023-01-12T12:43:42.130Z,11.43
2023-01-12T12:45:28.307Z,11.92
2023-01-12T12:46:59.844Z,47.36
2023-01-12T12:48:40.135Z,11.54
2023-01-12T12:50:02.923Z,14.20
2023-01-12T12:51:24.737Z,14.21
2023-01-12T12:52:45.924Z,33.39
2023-01-12T12:54:11.262Z,27.11
2023-01-12T12:55:32.537Z,24.37
2023-01-12T12:56:53.863Z,23.68
2023-01-12T12:58:24.693Z,16.14
2023-01-12T12:59:52.199Z,21.23
2023-01-12T13:01:23.071Z,16.46
2023-01-12T13:02:55.280Z,15.88
2023-01-12T13:04:16.647Z,47.27
2023-01-12T13:06:53.432Z,13.68
2023-01-12T13:09:36.731Z,33.68
2023-01-12T13:10:58.223Z,12.62
2023-01-12T13:12:23.225Z,11.48
2023-01-12T13:15:28.560Z,9.83
2023-01-12T13:16:51.420Z,13.43
2023-01-12T13:18:18.614Z,14.63
2023-01-12T13:19:44.105Z,13.03
2023-01-12T13:21:09.516Z,13.63
2023-01-12T13:22:45.090Z,11.18
2023-01-12T13:24:12.744Z,10.42
2023-01-12T13:25:37.971Z,10.37
2023-01-12T13:26:59.862Z,10.86
2023-01-12T13:28:20.886Z,12.69
2023-01-12T13:29:42.127Z,14.58
2023-01-12T13:31:03.606Z,14.43
2023-01-12T13:32:30.511Z,14.64
2023-01-12T13:33:55.593Z,15.43
2023-01-12T13:35:35.892Z,15.08
2023-01-12T13:37:18.810Z,14.59
2023-01-12T13:38:48.812Z,17.59
2023-01-12T13:40:19.920Z,15.07
2023-01-12T13:41:41.704Z,15.32
2023-01-12T13:43:06.167Z,13.33
2023-01-12T13:44:36.087Z,11.84
2023-01-12T13:47:24.933Z,11.20
2023-01-12T13:48:50.570Z,11.77
2023-01-12T13:50:22.141Z,12.73
2023-01-12T13:51:47.200Z,12.77
2023-01-12T13:58:09.532Z,13.04
2023-01-12T13:59:40.249Z,13.07
2023-01-12T14:01:02.242Z,13.18
2023-01-12T14:02:23.880Z,13.16
2023-01-12T14:03:54.776Z,16.23
2023-01-12T14:05:29.136Z,14.72
2023-01-12T14:07:04.016Z,13.43
2023-01-12T14:08:53.291Z,14.99
2023-01-12T14:10:24.618Z,13.86
2023-01-12T14:13:46.560Z,15.44
2023-01-12T14:15:27.345Z,15.78
2023-01-12T14:17:04.798Z,17.41
2023-01-12T14:19:27.795Z,18.18
2023-01-12T14:20:50.828Z,20.58
2023-01-12T14:22:18.735Z,19.33
2023-01-12T14:23:40.386Z,15.94
2023-01-12T14:26:28.034Z,14.69
2023-01-12T14:27:54.078Z,19.06
2023-01-12T14:29:15.556Z,15.28
2023-01-12T14:30:40.581Z,15.88
2023-01-12T14:32:02.172Z,15.47
2023-01-12T14:33:29.324Z,16.71
2023-01-12T14:34:50.524Z,17.26
2023-01-12T14:36:14.861Z,16.44
2023-01-12T14:37:36.226Z,16.73
2023-01-12T14:38:59.573Z,18.15
2023-01-12T14:40:32.318Z,16.25
2023-01-12T14:41:54.446Z,14.19
2023-01-12T14:43:15.963Z,15.92
2023-01-12T14:44:39.283Z,17.43
2023-01-12T14:46:01.447Z,18.48
2023-01-12T14:47:27.387Z,16.15
2023-01-12T14:49:02.933Z,16.41
2023-01-12T14:50:24.249Z,15.96
2023-01-12T14:51:58.702Z,16.21
2023-01-12T14:53:30.773Z,17.34
2023-01-12T14:54:52.590Z,10.84
2023-01-12T14:56:24.743Z,15.41
2023-01-12T14:57:49.839Z,20.06
2023-01-12T14:59:16.309Z,21.84
2023-01-12T15:00:37.552Z,20.26
2023-01-12T15:02:14.081Z,19.44
2023-01-12T15:03:43.189Z,22.87
2023-01-12T15:05:05.045Z,21.32
2023-01-12T15:06:26.136Z,17.06
2023-01-12T15:09:28.932Z,19.67
2023-01-12T15:11:01.939Z,18.71
2023-01-12T15:12:24.619Z,18.81
2023-01-12T15:13:49.813Z,17.60
2023-01-12T15:15:16.642Z,19.37
2023-01-12T15:16:37.833Z,19.41
2023-01-12T15:18:00.301Z,18.30
2023-01-12T15:19:21.608Z,20.02
2023-01-12T15:20:46.082Z,21.07
2023-01-12T15:22:07.412Z,18.65
2023-01-12T15:24:49.629Z,14.68
2023-01-12T15:26:11.640Z,14.19
2023-01-12T15:27:32.971Z,14.20
2023-01-12T15:28:54.065Z,17.01
2023-01-12T15:30:16.659Z,19.98
2023-01-12T15:31:37.958Z,17.81
2023-01-12T15:32:59.493Z,17.18
2023-01-12T15:34:20.753Z,14.86
2023-01-12T15:35:44.718Z,14.68
2023-01-12T15:37:05.709Z,13.99
2023-01-12T15:38:27.072Z,13.39
2023-01-12T15:39:48.401Z,13.77
2023-01-12T15:41:18.799Z,14.27
2023-01-12T15:43:55.883Z,14.68
2023-01-12T15:45:34.144Z,15.34
2023-01-12T15:46:57.525Z,13.23
2023-01-12T15:48:18.772Z,13.12
2023-01-12T15:49:42.322Z,23.66
2023-01-12T15:51:05.111Z,15.99
2023-01-12T15:52:26.582Z,17.57
2023-01-12T15:53:48.030Z,14.93
2023-01-12T15:55:17.340Z,19.82
2023-01-12T15:56:39.285Z,16.34
2023-01-12T15:58:01.531Z,30.31
2023-01-12T15:59:24.038Z,14.97
2023-01-12T16:00:45.200Z,14.03
2023-01-12T16:02:24.236Z,14.16
2023-01-12T16:04:15.162Z,14.59
2023-01-12T16:05:12.255Z,14.34
2023-01-12T16:06:33.632Z,14.59
2023-01-12T16:07:54.949Z,13.88
2023-01-12T16:09:16.582Z,15.60
2023-01-12T16:10:38.493Z,13.48
2023-01-12T16:13:17.347Z,25.64
2023-01-12T16:14:38.573Z,13.57
2023-01-12T16:16:00.303Z,14.76
2023-01-12T16:17:21.273Z,14.38
2023-01-12T16:18:44.027Z,12.61
2023-01-12T16:20:09.275Z,13.18
2023-01-12T16:21:30.970Z,13.95
2023-01-12T16:22:52.283Z,11.76
2023-01-12T16:24:14.932Z,11.73
2023-01-12T16:25:38.236Z,11.72
2023-01-12T16:27:02.059Z,13.28
2023-01-12T16:28:26.343Z,14.41
2023-01-12T16:29:47.675Z,15.94
2023-01-12T16:31:10.846Z,17.13
2023-01-12T16:33:53.324Z,12.62
2023-01-12T16:35:14.673Z,11.87
2023-01-12T16:36:38.074Z,12.14
2023-01-12T16:37:59.306Z,17.94
2023-01-12T16:39:21.750Z,14.99
2023-01-12T16:40:43.159Z,13.74
2023-01-12T16:42:05.072Z,12.54
2023-01-12T16:43:28.844Z,12.39
2023-01-12T16:44:50.007Z,14.02
2023-01-12T16:46:13.625Z,17.17
2023-01-12T16:47:35.000Z,15.61
2023-01-12T16:48:56.492Z,15.76
2023-01-12T16:50:17.589Z,14.66
2023-01-12T16:51:38.705Z,16.69
2023-01-12T16:53:00.377Z,13.42
2023-01-12T16:54:22.079Z,14.63
2023-01-12T16:55:43.509Z,13.98
2023-01-12T16:57:04.652Z,14.36
2023-01-12T16:58:26.194Z,14.26
2023-01-12T16:59:47.790Z,12.78
2023-01-12T17:01:11.811Z,13.83
2023-01-12T17:02:33.629Z,16.48
2023-01-12T17:03:55.161Z,12.65
2023-01-12T17:05:16.861Z,13.32
2023-01-12T17:06:39.865Z,16.16
2023-01-12T17:08:03.300Z,17.59
2023-01-12T17:09:24.486Z,18.40
2023-01-12T17:10:45.897Z,18.28
2023-01-12T17:12:07.180Z,16.66
2023-01-12T17:13:28.253Z,16.44
2023-01-12T17:14:49.291Z,16.25
2023-01-12T17:17:36.946Z,14.18
2023-01-12T17:18:58.243Z,14.63
2023-01-12T17:20:19.834Z,15.08
2023-01-12T17:21:42.225Z,16.52
2023-01-12T17:23:03.661Z,14.48
2023-01-12T17:24:25.058Z,15.75
2023-01-12T17:25:47.683Z,19.06
2023-01-12T17:27:09.661Z,15.34
2023-01-12T17:28:31.368Z,15.28
2023-01-12T17:29:52.501Z,14.77
2023-01-12T17:31:16.130Z,13.43
2023-01-12T17:32:39.296Z,14.26
2023-01-12T17:34:01.013Z,12.48
2023-01-12T17:35:23.467Z,13.51
2023-01-12T17:36:45.201Z,11.66
2023-01-12T17:38:06.567Z,14.07
2023-01-12T17:39:27.981Z,13.18
2023-01-12T17:40:49.506Z,14.35
2023-01-12T17:42:11.718Z,14.10
2023-01-12T17:43:33.003Z,14.44
2023-01-12T17:44:54.583Z,14.86
2023-01-12T17:46:19.294Z,15.61
2023-01-12T17:47:40.646Z,16.35
2023-01-12T17:49:05.817Z,14.31
2023-01-12T17:50:27.431Z,14.30
2023-01-12T17:51:48.494Z,14.55
2023-01-12T17:53:09.986Z,16.30
2023-01-12T17:54:31.419Z,11.87
2023-01-12T17:55:53.334Z,10.69
2023-01-12T17:57:14.474Z,9.59
2023-01-12T17:58:35.455Z,10.24
2023-01-12T17:59:56.935Z,10.01
2023-01-12T18:01:18.012Z,10.63
2023-01-12T18:02:39.260Z,13.13
2023-01-12T18:04:00.267Z,16.53
2023-01-12T18:05:21.516Z,14.05
2023-01-12T18:06:43.137Z,19.08
2023-01-12T18:08:04.405Z,19.97
2023-01-12T18:09:25.719Z,19.40
2023-01-12T18:10:47.070Z,16.08
2023-01-12T18:12:08.328Z,15.83
2023-01-12T18:13:30.497Z,9.78
2023-01-12T18:14:51.705Z,8.95
2023-01-12T18:16:13.558Z,8.76
2023-01-12T18:17:34.607Z,6.80
2023-01-12T18:18:56.250Z,8.26
2023-01-12T18:20:17.776Z,7.72
2023-01-12T18:21:39.165Z,10.16
2023-01-12T18:23:01.843Z,8.84
2023-01-12T18:24:23.691Z,9.44
2023-01-12T18:25:45.105Z,9.73
2023-01-12T18:27:06.011Z,9.23
2023-01-12T18:28:27.579Z,9.38
2023-01-12T18:29:48.824Z,9.98
2023-01-12T18:31:13.295Z,11.43
2023-01-12T18:32:34.604Z,13.28
2023-01-12T18:33:55.718Z,15.13
2023-01-12T18:35:16.928Z,11.01
2023-01-12T18:36:40.735Z,13.31
2023-01-12T18:38:01.968Z,11.41
2023-01-12T18:39:23.950Z,13.24
2023-01-12T18:40:45.157Z,11.66
2023-01-12T18:42:06.457Z,10.97
2023-01-12T18:43:27.677Z,13.99
2023-01-12T18:44:49.340Z,9.31
2023-01-12T18:46:10.923Z,10.17
2023-01-12T18:47:32.147Z,10.39
2023-01-12T18:48:53.340Z,10.87
2023-01-12T18:50:16.350Z,9.38
2023-01-12T18:51:37.387Z,12.26
2023-01-12T18:52:58.373Z,14.44
2023-01-12T18:54:19.673Z,13.42
2023-01-12T18:55:41.297Z,11.46
2023-01-12T18:57:02.797Z,11.12
2023-01-12T18:58:27.055Z,13.72
2023-01-12T18:59:49.786Z,31.32
2023-01-12T19:01:12.799Z,9.37
2023-01-12T19:02:34.652Z,11.07
2023-01-12T19:03:56.115Z,9.09
2023-01-12T19:05:17.527Z,11.36
2023-01-12T19:06:38.870Z,12.78
2023-01-12T19:08:00.100Z,11.56
2023-01-12T19:09:21.070Z,10.83
2023-01-12T19:10:42.868Z,11.41
2023-01-12T19:12:04.534Z,11.57
2023-01-12T19:13:25.576Z,10.99
2023-01-12T19:14:46.817Z,9.54
2023-01-12T19:16:10.295Z,11.52
2023-01-12T19:17:32.327Z,11.51
2023-01-12T19:18:53.609Z,10.98
2023-01-12T19:20:15.103Z,9.31
2023-01-12T19:21:37.219Z,9.93
2023-01-12T19:22:58.514Z,7.38
2023-01-12T19:24:20.198Z,12.98
2023-01-12T19:25:43.477Z,10.49
2023-01-12T19:27:04.675Z,12.39
2023-01-12T19:28:26.117Z,14.13
2023-01-12T19:29:47.878Z,10.77
2023-01-12T19:31:10.360Z,12.25
2023-01-12T19:32:31.409Z,9.79
2023-01-12T19:33:52.816Z,15.60
2023-01-12T19:35:15.043Z,9.58
2023-01-12T19:36:36.540Z,13.34
2023-01-12T19:37:58.195Z,10.75
2023-01-12T19:39:22.439Z,10.82
2023-01-12T19:40:44.152Z,9.51
2023-01-12T19:42:06.360Z,10.08
2023-01-12T19:43:27.678Z,10.02
2023-01-12T19:44:48.984Z,11.99